createdAt,value
2023-01-07T00:00:21.009Z,99649.66
2023-01-07T00:04:26.018Z,99647.47
2023-01-07T00:08:41.049Z,99647.03
2023-01-07T00:12:46.733Z,99647.16
2023-01-07T00:16:57.836Z,99643.03
2023-01-07T00:21:03.787Z,99636.34
2023-01-07T00:25:12.205Z,99633.84
2023-01-07T00:29:21.411Z,99638.38
2023-01-07T00:33:28.747Z,99636.81
2023-01-07T00:37:49.070Z,99625.00
2023-01-07T00:42:10.278Z,99614.28
2023-01-07T00:46:17.060Z,99623.13
2023-01-07T00:50:34.563Z,99616.28
2023-01-07T00:54:42.037Z,99612.69
2023-01-07T00:58:47.181Z,99612.19
2023-01-07T01:02:55.566Z,99601.66
2023-01-07T01:07:00.993Z,99608.31
2023-01-07T01:11:08.846Z,99598.72
2023-01-07T01:15:15.477Z,99588.53
2023-01-07T01:19:24.548Z,99599.06
2023-01-07T01:23:40.751Z,99583.53
2023-01-07T01:27:45.452Z,99573.16
2023-01-07T01:31:50.532Z,99569.69
2023-01-07T01:36:01.308Z,99560.56
2023-01-07T01:40:15.981Z,99556.97
2023-01-07T01:45:01.258Z,99568.59
2023-01-07T01:49:24.022Z,99562.66
2023-01-07T01:53:34.519Z,99571.00
2023-01-07T01:57:42.961Z,99568.03
2023-01-07T02:01:48.002Z,99559.53
2023-01-07T02:05:52.068Z,99564.00
2023-01-07T02:09:58.554Z,99566.91
2023-01-07T02:14:15.854Z,99554.41
2023-01-07T02:18:32.256Z,99552.66
2023-01-07T02:22:50.201Z,99550.75
2023-01-07T02:27:35.514Z,99530.25
2023-01-07T02:32:11.940Z,99538.41
2023-01-07T02:36:44.366Z,99536.72
2023-01-07T02:40:56.428Z,99529.53
2023-01-07T02:45:06.780Z,99527.41
2023-01-07T02:49:17.335Z,99536.53
2023-01-07T02:53:24.167Z,99525.88
2023-01-07T02:57:42.797Z,99521.06
2023-01-07T03:02:01.393Z,99510.97
2023-01-07T03:06:16.116Z,99515.69
2023-01-07T03:10:27.083Z,99504.91
2023-01-07T03:14:41.114Z,99508.81
2023-01-07T03:18:52.847Z,99502.69
2023-01-07T03:23:03.487Z,99500.19
2023-01-07T03:27:11.185Z,99487.81
2023-01-07T03:31:18.474Z,99476.59
2023-01-07T03:35:24.935Z,99486.75
2023-01-07T03:39:33.342Z,99471.16
2023-01-07T03:43:37.953Z,99471.63
2023-01-07T03:47:45.088Z,99447.44
2023-01-07T03:51:56.115Z,99458.00
2023-01-07T03:56:02.773Z,99451.25
2023-01-07T04:00:08.205Z,99461.09
2023-01-07T04:04:21.486Z,99453.63
2023-01-07T04:08:30.162Z,99447.22
2023-01-07T04:12:38.583Z,99433.22
2023-01-07T04:16:43.649Z,99433.72
2023-01-07T04:20:51.336Z,99430.50
2023-01-07T04:25:00.973Z,99431.03
2023-01-07T04:29:10.301Z,99430.25
2023-01-07T04:33:17.160Z,99406.97
2023-01-07T04:37:22.398Z,99424.53
2023-01-07T04:41:27.008Z,99403.88
2023-01-07T04:45:39.604Z,99403.09
2023-01-07T04:49:47.056Z,99398.75
2023-01-07T04:54:05.568Z,99397.69
2023-01-07T04:58:09.805Z,99390.81
2023-01-07T05:02:18.854Z,99386.47
2023-01-07T05:06:26.169Z,99361.94
2023-01-07T05:10:30.680Z,99365.38
2023-01-07T05:14:47.910Z,99379.66
2023-01-07T05:18:54.262Z,99345.38
2023-01-07T05:22:57.659Z,99358.78
2023-01-07T05:27:17.529Z,99360.75
2023-01-07T05:31:22.562Z,99349.88
2023-01-07T05:35:28.354Z,99352.56
2023-01-07T05:39:32.860Z,99351.09
2023-01-07T05:43:39.939Z,99350.75
2023-01-07T05:47:44.648Z,99330.63
2023-01-07T05:51:50.306Z,99349.75
2023-01-07T05:55:57.974Z,99322.72
2023-01-07T06:00:01.659Z,99343.44
2023-01-07T06:04:05.277Z,99341.84
2023-01-07T06:08:13.797Z,99331.22
2023-01-07T06:12:17.626Z,99333.75
2023-01-07T06:16:36.041Z,99327.09
2023-01-07T06:20:44.562Z,99325.09
2023-01-07T06:24:54.091Z,99322.97
2023-01-07T06:29:01.941Z,99318.59
2023-01-07T06:33:08.785Z,99315.97
2023-01-07T06:37:16.314Z,99310.00
2023-01-07T06:41:22.611Z,99302.47
2023-01-07T06:45:27.077Z,99300.88
2023-01-07T06:49:31.987Z,99248.63
2023-01-07T06:53:39.010Z,99288.03
2023-01-07T06:57:51.439Z,99277.19
2023-01-07T07:01:55.154Z,99266.38
2023-01-07T07:05:59.269Z,99279.81
2023-01-07T07:10:07.605Z,99266.75
2023-01-07T07:14:13.113Z,99260.81
2023-01-07T07:18:16.705Z,99261.84
2023-01-07T07:22:23.796Z,99245.09
2023-01-07T07:26:28.007Z,99248.88
2023-01-07T07:30:45.451Z,99250.16
2023-01-07T07:34:50.883Z,99248.47
2023-01-07T07:39:03.530Z,99236.56
2023-01-07T07:43:13.132Z,99245.16
2023-01-07T07:47:21.752Z,99245.03
2023-01-07T07:51:28.638Z,99244.25
2023-01-07T07:55:34.307Z,99239.22
2023-01-07T07:59:39.455Z,99225.72
2023-01-07T08:03:49.241Z,99227.56
2023-01-07T08:08:00.207Z,99224.69
2023-01-07T08:12:04.761Z,99227.88
2023-01-07T08:16:09.349Z,99196.41
2023-01-07T08:20:17.265Z,99211.38
2023-01-07T08:24:22.787Z,99214.38
2023-01-07T08:28:28.021Z,99191.81
2023-01-07T08:32:31.573Z,99210.34
2023-01-07T08:36:37.520Z,99192.94
2023-01-07T08:40:41.537Z,99189.94
2023-01-07T08:44:48.909Z,99174.72
2023-01-07T08:48:58.511Z,99176.53
2023-01-07T08:53:08.623Z,99163.56
2023-01-07T08:57:25.137Z,99154.47
2023-01-07T09:01:30.223Z,99146.56
2023-01-07T09:05:40.969Z,99145.38
2023-01-07T09:10:00.152Z,99143.00
2023-01-07T09:14:08.825Z,99147.91
2023-01-07T09:18:13.936Z,99140.22
2023-01-07T09:22:18.861Z,99120.97
2023-01-07T09:26:29.072Z,99129.03
2023-01-07T09:30:33.333Z,99118.66
2023-01-07T09:34:39.039Z,99126.69
2023-01-07T09:38:46.383Z,99122.81
2023-01-07T09:42:56.468Z,99112.31
2023-01-07T09:47:14.037Z,99122.25
2023-01-07T09:51:22.163Z,99119.19
2023-01-07T09:56:10.737Z,99112.66
2023-01-07T10:00:17.300Z,99116.44
2023-01-07T10:04:30.426Z,99080.06
2023-01-07T10:08:48.320Z,99083.09
2023-01-07T10:13:01.519Z,99079.72
2023-01-07T10:17:11.965Z,99093.19
2023-01-07T10:21:22.759Z,99089.41
2023-01-07T10:25:29.831Z,99085.00
2023-01-07T10:29:38.806Z,99069.75
2023-01-07T10:33:48.087Z,99070.88
2023-01-07T10:37:52.520Z,99053.69
2023-01-07T10:42:07.171Z,99055.13
2023-01-07T10:46:21.567Z,99033.38
2023-01-07T10:50:40.353Z,99047.38
2023-01-07T10:55:07.265Z,99036.09
2023-01-07T10:59:16.723Z,99041.69
2023-01-07T11:03:28.885Z,99035.38
2023-01-07T11:07:41.039Z,99029.59
2023-01-07T11:11:45.207Z,99014.31
2023-01-07T11:15:50.762Z,99000.31
2023-01-07T11:19:54.193Z,99007.44
2023-01-07T11:24:02.153Z,99000.31
2023-01-07T11:28:19.023Z,98983.09
2023-01-07T11:32:26.630Z,98984.22
2023-01-07T11:36:41.069Z,98984.56
2023-01-07T11:41:00.899Z,98968.06
2023-01-07T11:45:20.039Z,98963.63
2023-01-07T11:49:27.412Z,98911.91
2023-01-07T11:53:36.640Z,98943.19
2023-01-07T11:57:43.533Z,98943.31
2023-01-07T12:01:52.176Z,98934.00
2023-01-07T12:05:58.343Z,98922.97
2023-01-07T12:10:02.172Z,98926.47
2023-01-07T12:14:08.185Z,98926.16
2023-01-07T12:18:33.810Z,98914.81
2023-01-07T12:22:45.650Z,98906.81
2023-01-07T12:26:54.224Z,98899.28
2023-01-07T12:31:27.869Z,98889.66
2023-01-07T12:35:37.512Z,98897.00
2023-01-07T12:39:44.521Z,98883.78
2023-01-07T12:43:57.973Z,98870.56
2023-01-07T12:48:06.740Z,98874.88
2023-01-07T12:52:23.324Z,98860.09
2023-01-07T12:56:29.387Z,98866.03
2023-01-07T13:00:36.759Z,98849.41
2023-01-07T13:04:51.093Z,98838.50
2023-01-07T13:08:59.426Z,98850.03
2023-01-07T13:13:09.397Z,98830.22
2023-01-07T13:17:16.390Z,98848.41
2023-01-07T13:21:24.165Z,98836.19
2023-01-07T13:25:46.725Z,98844.06
2023-01-07T13:30:03.995Z,98843.81
2023-01-07T13:34:18.569Z,98821.97
2023-01-07T13:38:35.650Z,98829.25
2023-01-07T13:42:50.435Z,98823.47
2023-01-07T13:46:57.217Z,98816.66
2023-01-07T13:51:02.445Z,98799.16
2023-01-07T13:55:36.809Z,98803.41
2023-01-07T14:00:04.698Z,98786.56
2023-01-07T14:04:39.017Z,98802.50
2023-01-07T14:08:53.319Z,98802.00
2023-01-07T14:13:20.825Z,98805.44
2023-01-07T14:17:28.679Z,98767.41
2023-01-07T14:21:51.534Z,98809.84
2023-01-07T14:26:08.120Z,98801.59
2023-01-07T14:30:25.691Z,98808.19
2023-01-07T14:34:30.611Z,98795.72
2023-01-07T14:38:59.819Z,98805.16
2023-01-07T14:43:41.863Z,98794.00
2023-01-07T14:48:00.048Z,98798.19
2023-01-07T14:52:14.947Z,98802.69
2023-01-07T14:56:32.497Z,98794.25
2023-01-07T15:01:11.523Z,98782.75
2023-01-07T15:05:31.173Z,98779.94
2023-01-07T15:10:00.463Z,98768.59
2023-01-07T15:14:25.120Z,98769.28
2023-01-07T15:18:45.869Z,98760.81
2023-01-07T15:23:03.223Z,98750.66
2023-01-07T15:27:11.704Z,98752.44
2023-01-07T15:31:29.195Z,98750.78
2023-01-07T15:35:36.443Z,98741.94
2023-01-07T15:39:50.299Z,98732.75
2023-01-07T15:43:54.867Z,98737.47
2023-01-07T15:48:13.835Z,98733.50
2023-01-07T15:52:25.729Z,98726.28
2023-01-07T15:56:33.061Z,98705.06
2023-01-07T16:00:40.752Z,98712.06
2023-01-07T16:04:52.223Z,98714.41
2023-01-07T16:08:56.545Z,98706.78
2023-01-07T16:13:05.672Z,98714.13
2023-01-07T16:17:15.628Z,98711.53
2023-01-07T16:21:22.241Z,98700.69
2023-01-07T16:25:35.270Z,98721.19
2023-01-07T16:29:45.985Z,98707.75
2023-01-07T16:33:58.192Z,98713.72
2023-01-07T16:38:06.774Z,98707.16
2023-01-07T16:42:24.080Z,98705.81
2023-01-07T16:46:33.424Z,98708.22
2023-01-07T16:50:47.301Z,98694.91
2023-01-07T16:54:56.338Z,98690.72
2023-01-07T16:59:01.767Z,98690.91
2023-01-07T17:03:08.122Z,98664.69
2023-01-07T17:07:21.439Z,98690.59
2023-01-07T17:11:36.474Z,98696.25
2023-01-07T17:15:42.912Z,98689.31
2023-01-07T17:20:13.464Z,98691.03
2023-01-07T17:24:28.510Z,98688.19
2023-01-07T17:28:40.202Z,98688.91
2023-01-07T17:32:47.481Z,98694.06
2023-01-07T17:37:03.662Z,98692.19
2023-01-07T17:41:28.507Z,98679.31
2023-01-07T17:45:32.816Z,98675.31
2023-01-07T17:49:39.460Z,98681.78
2023-01-07T17:53:49.423Z,98669.38
2023-01-07T17:57:53.374Z,98650.91
2023-01-07T18:01:57.651Z,98628.00
2023-01-07T18:06:07.874Z,98655.16
2023-01-07T18:10:24.521Z,98656.44
2023-01-07T18:14:35.908Z,98650.16
2023-01-07T18:18:43.389Z,98631.72
2023-01-07T18:22:48.658Z,98640.59
2023-01-07T18:26:56.819Z,98651.41
2023-01-07T18:31:10.041Z,98649.53
2023-01-07T18:35:15.122Z,98644.22
2023-01-07T18:39:23.836Z,98635.66
2023-01-07T18:43:37.714Z,98641.00
2023-01-07T18:47:48.127Z,98622.63
2023-01-07T18:52:07.600Z,98626.50
2023-01-07T18:56:32.396Z,98621.03
2023-01-07T19:00:49.232Z,98610.19
2023-01-07T19:04:59.474Z,98620.50
2023-01-07T19:09:15.517Z,98620.75
2023-01-07T19:13:23.777Z,98630.44
2023-01-07T19:17:32.311Z,98617.28
2023-01-07T19:21:37.061Z,98622.56
2023-01-07T19:25:47.089Z,98622.13
2023-01-07T19:29:58.834Z,98622.03
2023-01-07T19:34:06.172Z,98632.72
2023-01-07T19:38:14.424Z,98629.03
2023-01-07T19:42:18.749Z,98638.09
2023-01-07T19:46:46.457Z,98648.47
2023-01-07T19:51:14.020Z,98635.66
2023-01-07T19:55:27.434Z,98633.28
2023-01-07T19:59:33.692Z,98645.16
2023-01-07T20:03:43.068Z,98636.94
2023-01-07T20:08:02.238Z,98628.81
2023-01-07T20:12:10.286Z,98623.88
2023-01-07T20:16:16.444Z,98620.31
2023-01-07T20:20:24.921Z,98611.53
2023-01-07T20:24:34.099Z,98616.66
2023-01-07T20:28:38.957Z,98625.50
2023-01-07T20:32:46.366Z,98615.59
2023-01-07T20:36:56.284Z,98619.84
2023-01-07T20:41:01.494Z,98626.03
2023-01-07T20:45:08.818Z,98634.56
2023-01-07T20:49:23.635Z,98624.66
2023-01-07T20:53:38.269Z,98624.03
2023-01-07T20:57:48.072Z,98605.53
2023-01-07T21:02:00.973Z,98618.41
2023-01-07T21:06:08.200Z,98621.34
2023-01-07T21:10:20.562Z,98614.03
2023-01-07T21:14:33.774Z,98617.94
2023-01-07T21:18:43.660Z,98611.22
2023-01-07T21:22:47.715Z,98591.75
2023-01-07T21:26:51.797Z,98613.44
2023-01-07T21:30:56.188Z,98601.56
2023-01-07T21:34:58.991Z,98601.84
2023-01-07T21:39:01.760Z,98616.22
2023-01-07T21:43:07.440Z,98596.19
2023-01-07T21:47:11.971Z,98599.84
2023-01-07T21:51:21.082Z,98616.16
2023-01-07T21:55:24.538Z,98597.34
2023-01-07T21:59:28.040Z,98599.41
2023-01-07T22:03:35.821Z,98603.91
2023-01-07T22:07:45.076Z,98596.28
2023-01-07T22:11:50.360Z,98595.75
2023-01-07T22:15:57.566Z,98604.25
2023-01-07T22:20:01.970Z,98593.50
2023-01-07T22:24:05.548Z,98549.84
2023-01-07T22:28:17.124Z,98586.16
2023-01-07T22:32:24.424Z,98575.13
2023-01-07T22:36:33.675Z,98572.56
2023-01-07T22:40:37.770Z,98546.56
2023-01-07T22:44:44.452Z,98568.03
2023-01-07T22:48:47.536Z,98568.53
2023-01-07T22:52:52.814Z,98547.66
2023-01-07T22:56:56.212Z,98563.59
2023-01-07T23:01:14.293Z,98563.31
2023-01-07T23:05:17.868Z,98547.75
2023-01-07T23:09:22.043Z,98543.78
2023-01-07T23:13:26.252Z,98544.38
2023-01-07T23:17:28.957Z,98535.16
2023-01-07T23:21:33.587Z,98515.88
2023-01-07T23:25:37.938Z,98515.94
2023-01-07T23:29:42.001Z,98484.22
2023-01-07T23:33:44.742Z,98504.38
2023-01-07T23:37:47.434Z,98493.31
2023-01-07T23:41:53.073Z,98497.28
2023-01-07T23:46:01.016Z,98490.41
2023-01-07T23:50:04.269Z,98466.97
2023-01-07T23:54:10.342Z,98475.69
2023-01-07T23:58:18.570Z,98472.50
